createdAt,value
2019-03-09T00:00:58.128Z,3.10
2019-03-09T00:03:25.545Z,2.73
2019-03-09T00:05:52.932Z,2.77
2019-03-09T00:08:20.340Z,2.90
2019-03-09T00:10:48.026Z,2.77
2019-03-09T00:13:15.439Z,2.27
2019-03-09T00:15:42.831Z,2.87
2019-03-09T00:18:10.242Z,2.20
2019-03-09T00:20:37.630Z,2.17
2019-03-09T00:23:22.052Z,2.10
2019-03-09T00:26:07.281Z,2.53
2019-03-09T00:28:52.551Z,2.37
2019-03-09T00:31:33.834Z,2.40
2019-03-09T00:34:01.244Z,2.20
2019-03-09T00:36:28.630Z,2.50
2019-03-09T00:38:56.042Z,2.27
2019-03-09T00:41:23.428Z,2.17
2019-03-09T00:43:50.846Z,2.40
2019-03-09T00:46:18.240Z,2.10
2019-03-09T00:48:45.656Z,2.20
2019-03-09T00:51:13.051Z,2.70
2019-03-09T00:53:40.456Z,2.50
2019-03-09T00:56:07.838Z,1.97
2019-03-09T00:58:35.271Z,1.80
2019-03-09T01:01:02.654Z,1.70
2019-03-09T01:03:30.072Z,1.50
2019-03-09T01:05:57.527Z,1.73
2019-03-09T01:08:24.935Z,1.90
2019-03-09T01:10:52.328Z,2.03
2019-03-09T01:13:19.749Z,2.20
2019-03-09T01:15:47.139Z,2.13
2019-03-09T01:18:14.551Z,2.00
2019-03-09T01:20:41.939Z,2.50
2019-03-09T01:23:09.354Z,1.43
2019-03-09T01:25:36.799Z,1.73
2019-03-09T01:28:04.210Z,1.57
2019-03-09T01:30:31.598Z,1.47
2019-03-09T01:32:59.022Z,1.70
2019-03-09T01:35:26.403Z,2.33
2019-03-09T01:37:53.786Z,1.70
2019-03-09T01:40:21.207Z,2.10
2019-03-09T01:42:48.599Z,1.90
2019-03-09T01:45:16.380Z,2.00
2019-03-09T01:47:43.837Z,2.50
2019-03-09T01:50:11.626Z,2.30
2019-03-09T01:52:39.071Z,2.40
2019-03-09T01:55:08.028Z,2.20
2019-03-09T01:57:35.418Z,1.50
2019-03-09T02:00:04.548Z,1.70
2019-03-09T02:02:31.934Z,1.97
2019-03-09T02:04:59.348Z,1.80
2019-03-09T02:07:26.737Z,1.60
2019-03-09T02:09:54.151Z,1.63
2019-03-09T02:12:21.540Z,2.37
2019-03-09T02:14:49.019Z,1.90
2019-03-09T02:17:16.409Z,2.60
2019-03-09T02:19:43.891Z,1.97
2019-03-09T02:22:11.275Z,1.63
2019-03-09T02:24:38.684Z,2.13
2019-03-09T02:27:06.141Z,1.73
2019-03-09T02:29:33.564Z,2.13
2019-03-09T02:32:00.964Z,1.60
2019-03-09T02:34:28.398Z,2.03
2019-03-09T02:36:55.759Z,2.33
2019-03-09T02:39:27.786Z,2.00
2019-03-09T02:41:55.182Z,1.50
2019-03-09T02:44:22.585Z,1.67
2019-03-09T02:46:49.969Z,1.77
2019-03-09T02:49:17.383Z,1.97
2019-03-09T02:51:44.786Z,1.87
2019-03-09T02:54:12.215Z,1.40
2019-03-09T02:56:39.579Z,2.17
2019-03-09T02:59:06.989Z,1.70
2019-03-09T03:01:38.805Z,2.07
2019-03-09T03:04:06.234Z,2.20
2019-03-09T03:06:33.615Z,1.50
2019-03-09T03:09:01.027Z,2.73
2019-03-09T03:11:28.422Z,2.30
2019-03-09T03:13:55.836Z,1.70
2019-03-09T03:16:23.230Z,1.70
2019-03-09T03:18:50.635Z,1.50
2019-03-09T03:21:18.028Z,1.65
2019-03-09T03:23:45.419Z,1.87
2019-03-09T03:26:12.834Z,1.73
2019-03-09T03:28:40.239Z,2.13
2019-03-09T03:31:07.658Z,1.77
2019-03-09T03:33:35.024Z,2.10
2019-03-09T03:36:02.458Z,1.37
2019-03-09T03:38:29.826Z,1.57
2019-03-09T03:40:57.239Z,2.53
2019-03-09T03:43:24.621Z,1.93
2019-03-09T03:45:52.028Z,1.47
2019-03-09T03:48:19.421Z,1.57
2019-03-09T03:50:46.859Z,1.50
2019-03-09T03:53:14.213Z,1.97
2019-03-09T03:55:41.705Z,1.77
2019-03-09T03:58:09.103Z,2.20
2019-03-09T04:00:36.527Z,1.30
2019-03-09T04:03:03.984Z,1.43
2019-03-09T04:05:31.402Z,2.63
2019-03-09T04:07:58.956Z,0.97
2019-03-09T04:10:26.436Z,1.10
2019-03-09T04:12:53.995Z,1.43
2019-03-09T04:15:21.407Z,1.03
2019-03-09T04:17:48.786Z,1.30
2019-03-09T04:20:16.268Z,1.20
2019-03-09T04:22:43.649Z,1.10
2019-03-09T04:25:11.239Z,1.83
2019-03-09T04:27:38.690Z,1.37
2019-03-09T04:30:07.585Z,1.00
2019-03-09T04:32:35.036Z,1.33
2019-03-09T04:35:02.468Z,1.10
2019-03-09T04:37:29.848Z,1.10
2019-03-09T04:39:57.267Z,1.43
2019-03-09T04:42:24.653Z,1.27
2019-03-09T04:44:52.042Z,0.87
2019-03-09T04:47:19.455Z,1.23
2019-03-09T04:49:46.847Z,1.03
2019-03-09T04:52:14.258Z,0.90
2019-03-09T04:54:41.647Z,0.80
2019-03-09T04:57:09.127Z,1.20
2019-03-09T04:59:36.514Z,1.47
2019-03-09T05:02:03.930Z,1.10
2019-03-09T05:04:32.863Z,1.00
2019-03-09T05:07:00.267Z,0.90
2019-03-09T05:09:45.457Z,1.27
2019-03-09T05:12:12.865Z,1.27
2019-03-09T05:14:40.252Z,1.37
2019-03-09T05:17:07.663Z,1.27
2019-03-09T05:19:35.046Z,1.13
2019-03-09T05:22:02.468Z,1.40
2019-03-09T05:24:29.856Z,0.90
2019-03-09T05:26:57.274Z,1.13
2019-03-09T05:29:24.658Z,1.20
2019-03-09T05:31:52.242Z,1.23
2019-03-09T05:34:19.618Z,1.20
2019-03-09T05:36:47.034Z,0.93
2019-03-09T05:39:14.420Z,0.80
2019-03-09T05:41:41.839Z,1.40
2019-03-09T05:44:09.221Z,1.30
2019-03-09T05:46:36.641Z,1.03
2019-03-09T05:49:04.097Z,1.00
2019-03-09T05:51:31.511Z,1.10
2019-03-09T05:53:58.895Z,1.17
2019-03-09T05:56:26.683Z,1.20
2019-03-09T05:58:54.074Z,0.90
2019-03-09T06:01:21.499Z,0.90
2019-03-09T06:03:48.878Z,1.07
2019-03-09T06:06:16.295Z,1.13
2019-03-09T06:08:43.673Z,1.40
2019-03-09T06:11:11.155Z,1.03
2019-03-09T06:13:38.540Z,0.90
2019-03-09T06:16:05.957Z,0.80
2019-03-09T06:18:33.413Z,1.37
2019-03-09T06:21:00.876Z,0.70
2019-03-09T06:23:28.210Z,1.10
2019-03-09T06:25:55.595Z,1.00
2019-03-09T06:28:23.004Z,1.20
2019-03-09T06:30:50.392Z,1.20
2019-03-09T06:33:18.787Z,0.90
2019-03-09T06:36:02.791Z,0.90
2019-03-09T06:38:34.416Z,0.93
2019-03-09T06:41:03.269Z,0.97
2019-03-09T06:43:30.720Z,0.87
2019-03-09T06:45:58.108Z,0.90
2019-03-09T06:48:25.524Z,0.80
2019-03-09T06:50:52.901Z,1.50
2019-03-09T06:53:20.318Z,0.77
2019-03-09T06:55:47.702Z,0.70
2019-03-09T06:58:15.118Z,0.80
2019-03-09T07:00:42.513Z,0.80
2019-03-09T07:03:09.929Z,2.13
2019-03-09T07:05:37.381Z,1.00
2019-03-09T07:08:04.786Z,0.70
2019-03-09T07:10:32.179Z,0.93
2019-03-09T07:12:59.588Z,0.90
2019-03-09T07:15:37.542Z,0.90
2019-03-09T07:18:06.500Z,0.90
2019-03-09T07:20:33.920Z,0.80
2019-03-09T07:23:01.322Z,0.90
2019-03-09T07:25:28.779Z,0.70
2019-03-09T07:27:57.726Z,0.77
2019-03-09T07:30:25.117Z,0.73
2019-03-09T07:32:52.577Z,0.70
2019-03-09T07:35:19.922Z,1.10
2019-03-09T07:37:47.339Z,0.70
2019-03-09T07:40:14.722Z,1.00
2019-03-09T07:42:42.135Z,1.00
2019-03-09T07:45:10.888Z,1.00
2019-03-09T07:47:38.298Z,1.03
2019-03-09T07:50:10.070Z,1.23
2019-03-09T07:52:37.556Z,0.80
2019-03-09T07:55:06.218Z,0.87
2019-03-09T07:57:33.636Z,0.60
2019-03-09T08:00:01.013Z,0.83
2019-03-09T08:02:28.508Z,0.90
2019-03-09T08:04:55.889Z,0.60
2019-03-09T08:07:23.308Z,1.10
2019-03-09T08:09:50.696Z,0.60
2019-03-09T08:12:18.155Z,0.70
2019-03-09T08:14:45.593Z,0.83
2019-03-09T08:17:12.979Z,0.93
2019-03-09T08:19:40.397Z,0.73
2019-03-09T08:22:07.775Z,0.60
2019-03-09T08:24:35.191Z,0.80
2019-03-09T08:27:02.588Z,0.70
2019-03-09T08:29:30.002Z,0.80
2019-03-09T08:31:57.406Z,0.60
2019-03-09T08:34:24.824Z,0.70
2019-03-09T08:36:52.332Z,0.90
2019-03-09T08:39:19.745Z,0.67
2019-03-09T08:41:47.653Z,0.70
2019-03-09T08:44:15.067Z,0.80
2019-03-09T08:46:42.421Z,0.80
2019-03-09T08:49:09.836Z,0.90
2019-03-09T08:51:37.525Z,0.70
2019-03-09T08:54:04.965Z,1.30
2019-03-09T08:56:33.504Z,0.90
2019-03-09T08:59:01.149Z,1.33
2019-03-09T09:01:28.525Z,0.70
2019-03-09T09:03:55.945Z,0.80
2019-03-09T09:06:23.337Z,1.20
2019-03-09T09:08:50.745Z,0.80
2019-03-09T09:11:18.139Z,0.70
2019-03-09T09:13:45.547Z,0.60
2019-03-09T09:16:13.004Z,0.70
2019-03-09T09:18:40.410Z,1.53
2019-03-09T09:21:07.800Z,1.03
2019-03-09T09:23:35.229Z,1.00
2019-03-09T09:26:02.616Z,1.30
2019-03-09T09:28:30.030Z,1.00
2019-03-09T09:30:57.415Z,0.90
2019-03-09T09:33:24.826Z,0.70
2019-03-09T09:35:52.279Z,1.57
2019-03-09T09:38:19.650Z,1.00
2019-03-09T09:40:47.061Z,0.80
2019-03-09T09:43:14.451Z,1.23
2019-03-09T09:45:41.935Z,0.70
2019-03-09T09:48:09.325Z,0.60
2019-03-09T09:50:36.740Z,0.90
2019-03-09T09:53:04.121Z,0.80
2019-03-09T09:55:31.551Z,0.50
2019-03-09T09:57:58.935Z,0.90
2019-03-09T10:00:27.052Z,0.70
2019-03-09T10:02:54.522Z,0.60
2019-03-09T10:05:22.324Z,0.70
2019-03-09T10:07:49.903Z,0.80
2019-03-09T10:10:18.190Z,0.60
2019-03-09T10:12:45.742Z,0.60
2019-03-09T10:15:14.482Z,0.70
2019-03-09T10:17:41.857Z,0.73
2019-03-09T10:20:10.059Z,0.70
2019-03-09T10:22:37.467Z,0.80
2019-03-09T10:25:05.859Z,0.63
2019-03-09T10:27:33.216Z,0.70
2019-03-09T10:30:00.635Z,0.60
2019-03-09T10:32:28.025Z,0.73
2019-03-09T10:34:55.450Z,0.67
2019-03-09T10:37:22.839Z,0.80
2019-03-09T10:39:50.248Z,0.83
2019-03-09T10:42:17.636Z,0.80
2019-03-09T10:44:45.079Z,0.80
2019-03-09T10:47:12.452Z,0.63
2019-03-09T10:49:39.870Z,1.20
2019-03-09T10:52:07.262Z,0.60
2019-03-09T10:54:36.218Z,0.80
2019-03-09T10:57:03.826Z,0.90
2019-03-09T10:59:31.211Z,0.60
2019-03-09T11:01:58.721Z,0.97
2019-03-09T11:04:27.811Z,0.80
2019-03-09T11:06:55.160Z,0.83
2019-03-09T11:09:22.535Z,1.00
2019-03-09T11:11:49.956Z,0.83
2019-03-09T11:14:17.337Z,0.90
2019-03-09T11:16:44.760Z,0.60
2019-03-09T11:19:12.144Z,0.80
2019-03-09T11:21:39.553Z,0.60
2019-03-09T11:24:06.942Z,1.20
2019-03-09T11:26:34.359Z,1.90
2019-03-09T11:29:01.736Z,0.83
2019-03-09T11:31:29.146Z,0.80
2019-03-09T11:33:56.531Z,0.80
2019-03-09T11:36:23.945Z,1.10
2019-03-09T11:38:51.327Z,0.80
2019-03-09T11:41:19.494Z,1.17
2019-03-09T11:43:47.038Z,1.37
2019-03-09T11:46:14.455Z,0.80
2019-03-09T11:48:41.841Z,0.70
2019-03-09T11:51:09.274Z,1.22
2019-03-09T11:53:36.654Z,0.80
2019-03-09T11:56:04.068Z,1.00
2019-03-09T11:58:31.458Z,0.80
2019-03-09T12:00:58.871Z,1.67
2019-03-09T12:03:26.249Z,0.93
2019-03-09T12:05:53.662Z,0.73
2019-03-09T12:08:21.051Z,1.00
2019-03-09T12:10:48.472Z,0.80
2019-03-09T12:13:15.861Z,1.00
2019-03-09T12:15:43.256Z,0.80
2019-03-09T12:18:10.669Z,0.80
2019-03-09T12:20:38.051Z,0.80
2019-03-09T12:23:15.920Z,0.90
2019-03-09T12:25:43.297Z,0.70
2019-03-09T12:28:10.709Z,0.70
2019-03-09T12:30:38.099Z,0.90
2019-03-09T12:33:05.526Z,0.90
2019-03-09T12:35:32.918Z,0.83
2019-03-09T12:38:00.392Z,0.80
2019-03-09T12:40:27.795Z,0.60
2019-03-09T12:42:55.235Z,0.80
2019-03-09T12:45:22.600Z,0.90
2019-03-09T12:47:50.043Z,1.67
2019-03-09T12:50:23.727Z,0.87
2019-03-09T12:52:51.208Z,0.70
2019-03-09T12:55:18.614Z,1.03
2019-03-09T12:57:46.036Z,0.80
2019-03-09T13:00:17.614Z,0.70
2019-03-09T13:02:45.030Z,0.80
2019-03-09T13:05:12.427Z,0.73
2019-03-09T13:07:39.855Z,0.70
2019-03-09T13:10:07.907Z,0.90
2019-03-09T13:12:35.340Z,1.20
2019-03-09T13:15:04.613Z,1.87
2019-03-09T13:17:31.844Z,1.00
2019-03-09T13:19:59.311Z,0.70
2019-03-09T13:22:26.736Z,0.70
2019-03-09T13:24:54.121Z,0.80
2019-03-09T13:27:21.834Z,1.13
2019-03-09T13:29:49.307Z,1.00
2019-03-09T13:32:16.684Z,0.80
2019-03-09T13:34:44.127Z,0.70
2019-03-09T13:37:11.593Z,1.30
2019-03-09T13:39:39.097Z,1.00
2019-03-09T13:42:06.514Z,0.80
2019-03-09T13:44:33.909Z,1.20
2019-03-09T13:47:01.299Z,1.00
2019-03-09T13:49:28.727Z,1.00
2019-03-09T13:51:56.125Z,0.70
2019-03-09T13:54:23.525Z,0.83
2019-03-09T13:56:50.911Z,1.03
2019-03-09T13:59:18.327Z,1.40
2019-03-09T14:01:45.707Z,0.80
2019-03-09T14:04:13.118Z,0.90
2019-03-09T14:06:40.506Z,0.80
2019-03-09T14:09:08.895Z,0.63
2019-03-09T14:11:36.284Z,0.80
2019-03-09T14:14:03.692Z,1.10
2019-03-09T14:16:31.072Z,0.73
2019-03-09T14:18:58.491Z,0.70
2019-03-09T14:21:25.878Z,0.70
2019-03-09T14:23:53.295Z,0.60
2019-03-09T14:26:20.680Z,0.70
2019-03-09T14:28:48.104Z,0.70
2019-03-09T14:31:15.488Z,1.10
2019-03-09T14:33:42.914Z,0.97
2019-03-09T14:36:10.287Z,0.60
2019-03-09T14:38:37.697Z,0.60
2019-03-09T14:41:05.091Z,0.90
2019-03-09T14:43:32.510Z,1.40
2019-03-09T14:45:59.894Z,1.00
2019-03-09T14:48:27.311Z,0.90
2019-03-09T14:50:54.697Z,0.80
2019-03-09T14:53:22.130Z,0.50
2019-03-09T14:55:49.607Z,0.60
2019-03-09T14:58:16.990Z,1.03
2019-03-09T15:00:44.415Z,0.80
2019-03-09T15:03:11.869Z,1.20
2019-03-09T15:05:39.296Z,1.00
2019-03-09T15:08:06.680Z,3.63
2019-03-09T15:10:34.090Z,1.63
2019-03-09T15:13:01.478Z,1.67
2019-03-09T15:15:29.008Z,0.80
2019-03-09T15:17:56.377Z,1.00
2019-03-09T15:20:23.795Z,1.07
2019-03-09T15:22:51.175Z,0.80
2019-03-09T15:25:19.065Z,2.10
2019-03-09T15:27:46.463Z,0.90
2019-03-09T15:30:15.429Z,0.60
2019-03-09T15:32:42.810Z,0.90
2019-03-09T15:35:10.696Z,0.70
2019-03-09T15:37:38.149Z,2.07
2019-03-09T15:40:06.943Z,1.30
2019-03-09T15:42:34.395Z,0.60
2019-03-09T15:45:01.846Z,0.70
2019-03-09T15:47:29.202Z,0.70
2019-03-09T15:49:56.695Z,0.77
2019-03-09T15:52:24.105Z,1.00
2019-03-09T15:54:51.498Z,0.73
2019-03-09T15:57:18.887Z,1.13
2019-03-09T15:59:46.302Z,0.80
2019-03-09T16:02:13.683Z,0.80
2019-03-09T16:04:41.106Z,1.00
2019-03-09T16:07:08.499Z,0.80
2019-03-09T16:09:35.985Z,1.10
2019-03-09T16:12:03.447Z,0.80
2019-03-09T16:14:30.857Z,0.60
2019-03-09T16:16:58.318Z,0.73
2019-03-09T16:19:25.751Z,0.83
2019-03-09T16:21:53.197Z,0.70
2019-03-09T16:24:20.634Z,0.70
2019-03-09T16:26:48.026Z,0.90
2019-03-09T16:29:15.457Z,1.00
2019-03-09T16:31:42.850Z,1.03
2019-03-09T16:34:10.264Z,0.90
2019-03-09T16:36:37.655Z,1.47
2019-03-09T16:39:06.249Z,0.90
2019-03-09T16:41:33.655Z,1.20
2019-03-09T16:44:01.109Z,0.97
2019-03-09T16:46:28.504Z,1.20
2019-03-09T16:48:55.947Z,1.40
2019-03-09T16:51:23.321Z,1.40
2019-03-09T16:53:50.700Z,1.37
2019-03-09T16:56:18.121Z,1.90
2019-03-09T16:58:45.518Z,1.27
2019-03-09T17:01:12.940Z,1.40
2019-03-09T17:03:40.333Z,1.67
2019-03-09T17:06:07.753Z,2.37
2019-03-09T17:08:35.141Z,1.57
2019-03-09T17:11:02.560Z,1.23
2019-03-09T17:13:29.992Z,1.50
2019-03-09T17:15:57.407Z,1.40
2019-03-09T17:18:24.784Z,1.87
2019-03-09T17:20:52.190Z,1.20
2019-03-09T17:23:19.605Z,1.73
2019-03-09T17:25:46.995Z,1.40
2019-03-09T17:28:14.378Z,1.20
2019-03-09T17:30:41.816Z,1.53
2019-03-09T17:33:09.183Z,1.63
2019-03-09T17:35:36.603Z,1.27
2019-03-09T17:38:03.994Z,2.03
2019-03-09T17:40:31.414Z,1.37
2019-03-09T17:42:58.807Z,1.77
2019-03-09T17:45:27.094Z,1.17
2019-03-09T17:47:54.479Z,1.97
2019-03-09T17:50:21.905Z,2.77
2019-03-09T17:52:49.278Z,1.77
2019-03-09T17:55:16.764Z,2.00
2019-03-09T17:57:44.145Z,2.20
2019-03-09T18:00:19.048Z,2.50
2019-03-09T18:02:46.500Z,1.67
2019-03-09T18:05:13.910Z,1.37
2019-03-09T18:07:41.290Z,1.63
2019-03-09T18:10:10.250Z,2.10
2019-03-09T18:12:37.701Z,1.80
2019-03-09T18:15:06.377Z,1.90
2019-03-09T18:17:33.783Z,1.90
2019-03-09T18:20:01.172Z,1.60
2019-03-09T18:22:28.584Z,2.10
2019-03-09T18:24:55.971Z,2.67
2019-03-09T18:27:23.382Z,1.90
2019-03-09T18:29:50.775Z,2.50
2019-03-09T18:32:18.235Z,1.70
2019-03-09T18:34:45.631Z,3.10
2019-03-09T18:37:13.054Z,2.00
2019-03-09T18:39:40.447Z,2.93
2019-03-09T18:42:07.862Z,2.47
2019-03-09T18:44:35.246Z,2.33
2019-03-09T18:47:02.752Z,2.70
2019-03-09T18:49:30.114Z,2.77
2019-03-09T18:51:57.557Z,2.40
2019-03-09T18:54:24.932Z,2.20
2019-03-09T18:56:52.340Z,2.20
2019-03-09T18:59:19.731Z,2.10
2019-03-09T19:01:47.150Z,2.30
2019-03-09T19:04:14.555Z,1.83
2019-03-09T19:06:42.037Z,2.07
2019-03-09T19:09:09.556Z,2.20
2019-03-09T19:11:36.966Z,3.00
2019-03-09T19:14:04.428Z,3.47
2019-03-09T19:16:31.852Z,2.77
2019-03-09T19:18:59.236Z,2.33
2019-03-09T19:21:26.654Z,3.00
2019-03-09T19:23:54.057Z,3.67
2019-03-09T19:26:21.487Z,2.87
2019-03-09T19:28:48.862Z,3.33
2019-03-09T19:31:16.327Z,3.30
2019-03-09T19:33:43.706Z,4.23
2019-03-09T19:36:11.125Z,2.70
2019-03-09T19:38:38.511Z,2.80
2019-03-09T19:41:05.932Z,3.50
2019-03-09T19:43:33.316Z,3.20
2019-03-09T19:46:00.706Z,2.60
2019-03-09T19:48:28.135Z,3.70
2019-03-09T19:50:55.594Z,3.50
2019-03-09T19:53:23.003Z,3.23
2019-03-09T19:55:50.395Z,3.30
2019-03-09T19:58:17.821Z,2.67
2019-03-09T20:00:45.215Z,3.33
2019-03-09T20:03:12.673Z,3.00
2019-03-09T20:05:40.065Z,3.00
2019-03-09T20:08:07.478Z,3.10
2019-03-09T20:10:34.874Z,3.10
2019-03-09T20:13:02.350Z,3.30
2019-03-09T20:15:29.739Z,2.83
2019-03-09T20:17:57.175Z,3.23
2019-03-09T20:20:24.563Z,2.93
2019-03-09T20:22:51.989Z,3.43
2019-03-09T20:25:19.556Z,3.07
2019-03-09T20:27:47.001Z,3.40
2019-03-09T20:30:15.930Z,2.77
2019-03-09T20:32:43.475Z,3.37
2019-03-09T20:35:10.939Z,2.83
2019-03-09T20:37:38.343Z,2.97
2019-03-09T20:40:07.331Z,2.70
2019-03-09T20:42:34.819Z,2.40
2019-03-09T20:45:02.201Z,2.70
2019-03-09T20:47:29.623Z,2.77
2019-03-09T20:49:57.010Z,3.67
2019-03-09T20:52:24.440Z,2.60
2019-03-09T20:54:51.830Z,2.90
2019-03-09T20:57:19.238Z,3.57
2019-03-09T20:59:46.626Z,2.47
2019-03-09T21:02:14.033Z,2.63
2019-03-09T21:04:41.418Z,2.87
2019-03-09T21:07:08.813Z,3.10
2019-03-09T21:09:36.238Z,3.30
2019-03-09T21:12:03.631Z,2.73
2019-03-09T21:14:31.047Z,3.40
2019-03-09T21:16:59.760Z,2.47
2019-03-09T21:19:27.350Z,3.20
2019-03-09T21:21:54.733Z,2.80
2019-03-09T21:24:22.141Z,2.80
2019-03-09T21:26:49.538Z,3.07
2019-03-09T21:29:16.951Z,2.80
2019-03-09T21:31:44.348Z,2.77
2019-03-09T21:34:11.759Z,2.57
2019-03-09T21:36:39.155Z,3.80
2019-03-09T21:39:06.742Z,3.03
2019-03-09T21:41:34.135Z,2.83
2019-03-09T21:44:01.538Z,2.17
2019-03-09T21:46:28.922Z,3.17
2019-03-09T21:48:56.342Z,2.27
2019-03-09T21:51:23.719Z,3.30
2019-03-09T21:53:51.198Z,2.63
2019-03-09T21:56:18.585Z,2.90
2019-03-09T21:58:45.997Z,2.83
2019-03-09T22:01:13.387Z,3.10
2019-03-09T22:03:40.802Z,2.80
2019-03-09T22:06:08.192Z,2.60
2019-03-09T22:08:35.607Z,2.67
2019-03-09T22:11:02.994Z,3.33
2019-03-09T22:13:30.409Z,3.40
2019-03-09T22:15:57.787Z,2.67
2019-03-09T22:18:25.275Z,2.57
2019-03-09T22:20:52.738Z,3.20
2019-03-09T22:23:20.120Z,2.47
2019-03-09T22:25:47.543Z,2.37
2019-03-09T22:28:14.930Z,3.30
2019-03-09T22:30:42.339Z,3.03
2019-03-09T22:33:09.721Z,2.83
2019-03-09T22:35:37.133Z,2.50
2019-03-09T22:38:04.587Z,3.40
2019-03-09T22:40:32.006Z,2.93
2019-03-09T22:42:59.393Z,2.00
2019-03-09T22:45:26.880Z,3.27
2019-03-09T22:47:54.264Z,2.70
2019-03-09T22:50:27.545Z,2.50
2019-03-09T22:52:54.928Z,2.40
2019-03-09T22:55:22.342Z,2.47
2019-03-09T22:57:49.722Z,2.20
2019-03-09T23:00:22.029Z,2.80
2019-03-09T23:02:49.409Z,2.33
2019-03-09T23:05:16.967Z,1.73
2019-03-09T23:07:44.417Z,1.93
2019-03-09T23:10:13.362Z,2.37
2019-03-09T23:12:40.767Z,1.47
2019-03-09T23:15:09.637Z,1.93
2019-03-09T23:17:37.013Z,2.03
2019-03-09T23:20:05.401Z,1.70
2019-03-09T23:22:32.790Z,2.10
2019-03-09T23:25:00.297Z,1.77
2019-03-09T23:27:27.720Z,1.93
2019-03-09T23:29:55.113Z,2.73
2019-03-09T23:32:22.506Z,2.17
2019-03-09T23:34:49.927Z,1.60
2019-03-09T23:37:17.296Z,1.63
2019-03-09T23:39:45.583Z,1.97
2019-03-09T23:42:12.976Z,1.70
2019-03-09T23:44:40.355Z,1.77
2019-03-09T23:47:07.766Z,2.27
2019-03-09T23:49:35.216Z,2.30
2019-03-09T23:52:02.625Z,1.93
2019-03-09T23:54:30.010Z,2.20
2019-03-09T23:56:57.493Z,2.50
2019-03-09T23:59:24.963Z,1.80
